createdAt,value
2023-11-04T00:04:35.555Z,92495.50
2023-11-04T00:09:48.702Z,92488.81
2023-11-04T00:14:55.426Z,92457.94
2023-11-04T00:19:59.096Z,92441.66
2023-11-04T00:25:02.332Z,92409.16
2023-11-04T00:30:06.877Z,92424.53
2023-11-04T00:35:10.269Z,92446.97
2023-11-04T00:40:13.819Z,92478.69
2023-11-04T00:45:17.608Z,92464.88
2023-11-04T00:50:22.086Z,92429.13
2023-11-04T00:55:25.713Z,92414.59
2023-11-04T01:00:30.893Z,92409.53
2023-11-04T01:05:35.354Z,92421.88
2023-11-04T01:10:39.064Z,92433.69
2023-11-04T01:15:42.547Z,92451.72
2023-11-04T01:20:47.376Z,92436.78
2023-11-04T01:25:50.472Z,92446.81
2023-11-04T01:30:54.744Z,92420.03
2023-11-04T01:35:58.955Z,92405.53
2023-11-04T01:41:02.286Z,92420.75
2023-11-04T01:46:17.043Z,92408.97
2023-11-04T01:51:21.343Z,92409.53
2023-11-04T01:56:43.282Z,92421.66
2023-11-04T02:01:48.427Z,92492.78
2023-11-04T02:06:53.308Z,92476.63
2023-11-04T02:11:57.145Z,92478.97
2023-11-04T02:17:01.394Z,92455.31
2023-11-04T02:22:05.391Z,92427.06
2023-11-04T02:27:09.753Z,92406.91
2023-11-04T02:32:13.372Z,92345.25
2023-11-04T02:37:17.198Z,92364.84
2023-11-04T02:42:20.314Z,92348.41
2023-11-04T02:47:23.655Z,92357.66
2023-11-04T02:52:29.917Z,92367.56
2023-11-04T02:57:33.085Z,92351.22
2023-11-04T03:02:36.832Z,92364.31
2023-11-04T03:07:40.604Z,92357.94
2023-11-04T03:12:44.503Z,92359.69
2023-11-04T03:17:48.153Z,92365.00
2023-11-04T03:22:51.343Z,92368.78
2023-11-04T03:27:55.050Z,92388.47
2023-11-04T03:32:58.430Z,92376.31
2023-11-04T03:38:01.651Z,92370.13
2023-11-04T03:43:04.704Z,92365.53
2023-11-04T03:48:08.129Z,92378.72
2023-11-04T03:53:11.342Z,92378.72
2023-11-04T03:58:14.969Z,92375.50
2023-11-04T04:03:18.262Z,92369.13
2023-11-04T04:08:21.414Z,92371.75
2023-11-04T04:13:24.866Z,92382.84
2023-11-04T04:18:28.371Z,92380.28
2023-11-04T04:23:31.601Z,92373.78
2023-11-04T04:28:37.132Z,92371.59
2023-11-04T04:33:40.493Z,92377.78
2023-11-04T04:38:43.706Z,92374.72
2023-11-04T04:43:47.269Z,92376.50
2023-11-04T04:48:50.697Z,92344.56
2023-11-04T04:53:54.080Z,92354.84
2023-11-04T04:58:57.249Z,92354.06
2023-11-04T05:04:00.534Z,92360.88
2023-11-04T05:09:06.283Z,92369.06
2023-11-04T05:14:09.370Z,92359.63
2023-11-04T05:19:12.566Z,92336.94
2023-11-04T05:24:16.206Z,92350.50
2023-11-04T05:29:19.419Z,92373.47
2023-11-04T05:34:22.922Z,92389.00
2023-11-04T05:39:27.113Z,92364.63
2023-11-04T05:44:30.724Z,92377.63
2023-11-04T05:49:34.172Z,92379.38
2023-11-04T05:54:38.481Z,92369.97
2023-11-04T05:59:44.251Z,92392.09
2023-11-04T06:04:48.214Z,92416.19
2023-11-04T06:09:51.615Z,92411.63
2023-11-04T06:14:55.356Z,92409.22
2023-11-04T06:19:58.979Z,92418.06
2023-11-04T06:25:03.674Z,92403.69
2023-11-04T06:30:08.933Z,92385.78
2023-11-04T06:35:12.148Z,92395.03
2023-11-04T06:40:15.626Z,92387.19
2023-11-04T06:45:19.084Z,92399.06
2023-11-04T06:50:22.408Z,92434.84
2023-11-04T06:55:26.102Z,92460.06
2023-11-04T07:00:29.304Z,92464.19
2023-11-04T07:05:33.565Z,92477.78
2023-11-04T07:10:38.734Z,92487.69
2023-11-04T07:15:44.794Z,92492.22
2023-11-04T07:20:49.552Z,92493.75
2023-11-04T07:25:52.694Z,92506.13
2023-11-04T07:30:57.269Z,92499.66
2023-11-04T07:36:01.077Z,92519.72
2023-11-04T07:41:04.853Z,92509.19
2023-11-04T07:46:08.234Z,92538.59
2023-11-04T07:51:12.177Z,92552.56
2023-11-04T07:56:16.425Z,92557.25
2023-11-04T08:01:20.938Z,92550.19
2023-11-04T08:06:25.005Z,92561.34
2023-11-04T08:11:28.374Z,92577.47
2023-11-04T08:16:32.208Z,92579.59
2023-11-04T08:21:35.423Z,92571.78
2023-11-04T08:26:42.811Z,92579.00
2023-11-04T08:31:46.249Z,92604.66
2023-11-04T08:36:49.959Z,92612.78
2023-11-04T08:41:53.148Z,92614.06
2023-11-04T08:46:57.744Z,92621.41
2023-11-04T08:52:01.160Z,92624.41
2023-11-04T08:57:04.622Z,92620.38
2023-11-04T09:02:08.050Z,92644.25
2023-11-04T09:07:13.016Z,92645.66
2023-11-04T09:12:20.605Z,92649.84
2023-11-04T09:17:25.615Z,92670.63
2023-11-04T09:22:29.059Z,92636.91
2023-11-04T09:27:32.833Z,92664.97
2023-11-04T09:32:37.065Z,92655.50
2023-11-04T09:37:44.755Z,92669.69
2023-11-04T09:42:48.888Z,92653.22
2023-11-04T09:47:54.206Z,92624.19
2023-11-04T09:53:02.369Z,92649.59
2023-11-04T09:58:06.721Z,92664.28
2023-11-04T10:03:09.803Z,92665.72
2023-11-04T10:08:13.561Z,92643.81
2023-11-04T10:13:17.902Z,92632.84
2023-11-04T10:18:22.065Z,92658.34
2023-11-04T10:23:25.301Z,92657.34
2023-11-04T10:28:28.733Z,92667.25
2023-11-04T10:33:37.641Z,92672.75
2023-11-04T10:38:45.756Z,92667.63
2023-11-04T10:44:12.385Z,92635.38
2023-11-04T10:49:19.949Z,92689.63
2023-11-04T10:54:33.975Z,92689.91
2023-11-04T10:59:45.130Z,92692.44
2023-11-04T11:04:49.872Z,92696.22
2023-11-04T11:09:54.695Z,92693.78
2023-11-04T11:14:58.870Z,92701.16
2023-11-04T11:20:05.835Z,92684.22
2023-11-04T11:25:09.415Z,92702.06
2023-11-04T11:30:13.633Z,92695.75
2023-11-04T11:35:17.410Z,92696.50
2023-11-04T11:40:23.766Z,92700.63
2023-11-04T11:45:29.528Z,92691.38
2023-11-04T11:50:40.577Z,92685.50
2023-11-04T11:55:44.855Z,92701.22
2023-11-04T12:00:48.256Z,92726.44
2023-11-04T12:05:54.466Z,92705.03
2023-11-04T12:10:57.852Z,92732.19
2023-11-04T12:16:04.246Z,92723.34
2023-11-04T12:21:12.027Z,92727.19
2023-11-04T12:26:15.940Z,92736.50
2023-11-04T12:31:19.563Z,92730.88
2023-11-04T12:36:24.866Z,92735.19
2023-11-04T12:41:28.866Z,92734.69
2023-11-04T12:46:32.842Z,92737.91
2023-11-04T12:51:36.124Z,92728.66
2023-11-04T12:56:39.633Z,92734.63
2023-11-04T13:01:42.756Z,92697.19
2023-11-04T13:06:46.580Z,92744.81
2023-11-04T13:11:50.430Z,92762.75
2023-11-04T13:16:58.697Z,92747.25
2023-11-04T13:22:02.026Z,92766.06
2023-11-04T13:27:05.664Z,92770.97
2023-11-04T13:32:09.844Z,92769.16
2023-11-04T13:37:13.517Z,92763.09
2023-11-04T13:42:16.689Z,92739.94
2023-11-04T13:47:21.087Z,92750.22
2023-11-04T13:52:24.819Z,92753.94
2023-11-04T13:57:28.749Z,92774.31
2023-11-04T14:02:32.391Z,92766.44
2023-11-04T14:07:36.093Z,92754.44
2023-11-04T14:12:40.036Z,92757.31
2023-11-04T14:17:43.784Z,92773.78
2023-11-04T14:22:47.527Z,92777.81
2023-11-04T14:27:50.700Z,92753.47
2023-11-04T14:32:54.247Z,92786.91
2023-11-04T14:37:57.778Z,92793.38
2023-11-04T14:43:02.188Z,92801.34
2023-11-04T14:48:07.759Z,92791.91
2023-11-04T14:53:11.367Z,92787.94
2023-11-04T14:58:15.737Z,92789.59
2023-11-04T15:03:19.214Z,92798.81
2023-11-04T15:08:22.384Z,92820.13
2023-11-04T15:13:26.372Z,92835.22
2023-11-04T15:18:30.201Z,92827.19
2023-11-04T15:23:33.503Z,92825.41
2023-11-04T15:28:37.662Z,92825.38
2023-11-04T15:33:42.144Z,92816.63
2023-11-04T15:38:45.416Z,92848.81
2023-11-04T15:43:48.556Z,92874.19
2023-11-04T15:48:52.302Z,92867.88
2023-11-04T15:53:56.172Z,92855.25
2023-11-04T15:59:00.388Z,92872.88
2023-11-04T16:04:04.999Z,92896.25
2023-11-04T16:09:10.107Z,92897.94
2023-11-04T16:14:14.611Z,92899.13
2023-11-04T16:19:17.902Z,92907.09
2023-11-04T16:24:21.252Z,92905.88
2023-11-04T16:29:24.928Z,92919.88
2023-11-04T16:34:28.302Z,92920.41
2023-11-04T16:39:31.925Z,92928.63
2023-11-04T16:44:36.361Z,92936.13
2023-11-04T16:49:39.958Z,92942.25
2023-11-04T16:54:44.123Z,92945.66
2023-11-04T16:59:47.821Z,92954.28
2023-11-04T17:04:51.988Z,92954.13
2023-11-04T17:09:55.695Z,92955.41
2023-11-04T17:14:59.786Z,92956.28
2023-11-04T17:20:04.920Z,92956.16
2023-11-04T17:30:13.365Z,92933.22
2023-11-04T17:35:17.110Z,92966.13
2023-11-04T17:40:20.712Z,92974.41
2023-11-04T17:45:27.375Z,92977.28
2023-11-04T17:50:32.427Z,92989.31
2023-11-04T17:55:36.520Z,92977.28
2023-11-04T18:00:40.621Z,92972.09
2023-11-04T18:05:44.896Z,92989.59
2023-11-04T18:10:49.480Z,92991.66
2023-11-04T18:15:53.835Z,92983.50
2023-11-04T18:20:58.376Z,92999.50
2023-11-04T18:26:03.372Z,92993.06
2023-11-04T18:31:06.700Z,92994.47
2023-11-04T18:36:11.936Z,92999.09
2023-11-04T18:41:18.008Z,93005.56
2023-11-04T18:46:22.034Z,92994.09
2023-11-04T18:51:27.876Z,92991.06
2023-11-04T18:56:32.046Z,92990.34
2023-11-04T19:01:36.208Z,93013.00
2023-11-04T19:06:40.230Z,92997.63
2023-11-04T19:11:47.918Z,92989.78
2023-11-04T19:16:52.273Z,92985.41
2023-11-04T19:21:56.450Z,92988.38
2023-11-04T19:27:00.117Z,92975.22
2023-11-04T19:32:04.729Z,92978.16
2023-11-04T19:37:08.424Z,92991.13
2023-11-04T19:42:12.933Z,93005.47
2023-11-04T19:47:19.129Z,93001.47
2023-11-04T19:52:23.308Z,93022.66
2023-11-04T19:57:26.637Z,93029.34
2023-11-04T20:02:31.225Z,93018.81
2023-11-04T20:07:35.292Z,93027.78
2023-11-04T20:12:38.596Z,93026.34
2023-11-04T20:17:45.812Z,93022.41
2023-11-04T20:22:48.954Z,93019.81
2023-11-04T20:27:53.412Z,92993.44
2023-11-04T20:32:58.362Z,93000.81
2023-11-04T20:38:02.507Z,92994.78
2023-11-04T20:43:07.387Z,92985.41
2023-11-04T20:48:11.431Z,92975.13
2023-11-04T20:53:15.493Z,92973.16
2023-11-04T20:58:19.684Z,92966.59
2023-11-04T21:03:23.808Z,92977.94
2023-11-04T21:08:28.073Z,92934.06
2023-11-04T21:13:37.808Z,93000.91
2023-11-04T21:18:42.237Z,93012.06
2023-11-04T21:23:46.508Z,93016.81
2023-11-04T21:28:52.651Z,93015.56
2023-11-04T21:33:56.651Z,92983.38
2023-11-04T21:39:00.515Z,93013.41
2023-11-04T21:44:04.978Z,93007.28
2023-11-04T21:49:08.984Z,92982.31
2023-11-04T21:54:12.385Z,92983.03
2023-11-04T21:59:16.752Z,92969.28
2023-11-04T22:04:20.248Z,92975.28
2023-11-04T22:09:25.189Z,92989.56
2023-11-04T22:14:28.206Z,93008.28
2023-11-04T22:19:32.534Z,92989.28
2023-11-04T22:24:36.445Z,92984.25
2023-11-04T22:29:40.225Z,92995.44
2023-11-04T22:34:43.802Z,92996.72
2023-11-04T22:39:47.663Z,92994.63
2023-11-04T22:44:51.994Z,93002.72
2023-11-04T22:49:55.961Z,92984.53
2023-11-04T22:54:59.645Z,92973.75
2023-11-04T23:00:04.441Z,92989.44
2023-11-04T23:05:08.927Z,92985.56
2023-11-04T23:10:13.245Z,92969.47
2023-11-04T23:15:16.633Z,92974.72
2023-11-04T23:20:22.854Z,92963.28
2023-11-04T23:25:27.229Z,92958.44
2023-11-04T23:30:30.858Z,92955.91
2023-11-04T23:35:35.306Z,92946.41
2023-11-04T23:40:39.737Z,92934.31
2023-11-04T23:45:44.976Z,92951.13
2023-11-04T23:50:48.881Z,92949.97
2023-11-04T23:55:53.083Z,92934.19
